Time;durP1;ratioP1;P1;durP2;ratioP2;P2;SDS_P1;SDS_P2;PMS_P1;PMS_P2;Temp;Humidity;BMP_temperature;BMP_pressure;BME280_temperature;BME280_humidity;BME280_pressure;Samples;Min_cycle;Max_cycle;Signal;HPM_P1;HPM_P2
2023/06/17 00:00:21;;;;;;;;;;;27.80;49.20;;;;;;7325359;19;9185;-25
2023/06/17 00:02:50;;;;;;;;;;;27.70;49.20;;;;;;7326111;19;9221;-26
2023/06/17 00:05:19;;;;;;;;;;;27.80;49.20;;;;;;7326521;19;9257;-27
2023/06/17 00:07:49;;;;;;;;;;;27.70;49.30;;;;;;7324131;19;9214;-28
2023/06/17 00:10:18;;;;;;;;;;;27.70;49.20;;;;;;7323939;19;10693;-31
2023/06/17 00:12:50;;;;;;;;;;;27.80;49.30;;;;;;7323970;19;9233;-24
2023/06/17 00:15:20;;;;;;;;;;;27.70;49.30;;;;;;7325872;19;10078;-26
2023/06/17 00:17:50;;;;;;;;;;;27.70;49.30;;;;;;7326209;19;9286;-26
2023/06/17 00:20:20;;;;;;;;;;;27.70;49.30;;;;;;7324777;19;9249;-27
2023/06/17 00:22:49;;;;;;;;;;;27.70;49.30;;;;;;7325014;19;9246;-24
2023/06/17 00:25:18;;;;;;;;;;;27.70;49.30;;;;;;7325348;19;9206;-25
2023/06/17 00:27:47;;;;;;;;;;;27.70;49.30;;;;;;7324930;19;8944;-27
2023/06/17 00:30:19;;;;;;;;;;;27.70;49.40;;;;;;7325809;19;9184;-24
2023/06/17 00:32:48;;;;;;;;;;;27.70;49.30;;;;;;7324905;19;9434;-27
2023/06/17 00:35:17;;;;;;;;;;;27.70;49.40;;;;;;7326256;19;10062;-26
2023/06/17 00:37:46;;;;;;;;;;;27.70;49.40;;;;;;7324893;19;9221;-28
2023/06/17 00:40:15;;;;;;;;;;;27.70;49.40;;;;;;7324238;19;10035;-30
2023/06/17 00:42:44;;;;;;;;;;;27.70;49.40;;;;;;7324415;19;9296;-27
2023/06/17 00:45:13;;;;;;;;;;;27.70;49.40;;;;;;7325898;19;9446;-28
2023/06/17 00:47:45;;;;;;;;;;;27.70;49.70;;;;;;7324420;19;8944;-25
2023/06/17 00:50:17;;;;;;;;;;;27.60;49.40;;;;;;7323787;19;10861;-26
2023/06/17 00:52:53;;;;;;;;;;;27.60;49.40;;;;;;7324119;19;9217;-25
2023/06/17 00:55:24;;;;;;;;;;;27.60;49.40;;;;;;7324927;19;9438;-25
2023/06/17 00:57:54;;;;;;;;;;;27.60;49.50;;;;;;7323231;19;9220;-28
2023/06/17 01:00:23;;;;;;;;;;;27.60;49.50;;;;;;7322665;19;9462;-29
2023/06/17 01:02:56;;;;;;;;;;;27.60;49.50;;;;;;7325820;19;8944;-25
2023/06/17 01:05:26;;;;;;;;;;;27.60;49.50;;;;;;7333173;19;9426;-28
2023/06/17 01:08:12;;;;;;;;;;;27.60;49.50;;;;;;7331529;19;9225;-29
2023/06/17 01:10:49;;;;;;;;;;;27.60;49.60;;;;;;7332176;19;9202;-26
2023/06/17 01:13:20;;;;;;;;;;;27.60;49.60;;;;;;7332620;19;9213;-29
2023/06/17 01:15:51;;;;;;;;;;;27.60;49.60;;;;;;7332198;19;9174;-27
2023/06/17 01:18:24;;;;;;;;;;;27.60;49.70;;;;;;7330080;19;9438;-28
2023/06/17 01:20:55;;;;;;;;;;;27.60;50.30;;;;;;7328708;19;9249;-27
2023/06/17 01:23:31;;;;;;;;;;;27.60;49.70;;;;;;7331624;19;8944;-24
2023/06/17 01:26:03;;;;;;;;;;;27.60;49.70;;;;;;7327095;19;9233;-30
2023/06/17 01:28:36;;;;;;;;;;;27.60;49.80;;;;;;7330193;19;9165;-26
2023/06/17 01:31:08;;;;;;;;;;;27.50;49.70;;;;;;7329206;19;9453;-24
2023/06/17 01:33:39;;;;;;;;;;;27.50;49.70;;;;;;7328629;19;9326;-24
2023/06/17 01:36:15;;;;;;;;;;;27.50;49.70;;;;;;7330864;19;9209;-26
2023/06/17 01:38:49;;;;;;;;;;;27.50;49.80;;;;;;7330080;19;9461;-31
2023/06/17 01:41:27;;;;;;;;;;;27.50;49.90;;;;;;7330461;19;9245;-30
2023/06/17 01:44:00;;;;;;;;;;;27.50;49.80;;;;;;7330439;19;9281;-27
2023/06/17 01:46:29;;;;;;;;;;;27.50;49.80;;;;;;7331377;19;9217;-27
2023/06/17 01:49:00;;;;;;;;;;;27.50;49.80;;;;;;7330704;19;9465;-30
2023/06/17 01:51:29;;;;;;;;;;;27.50;49.80;;;;;;7329598;19;9215;-32
2023/06/17 01:53:58;;;;;;;;;;;27.50;49.80;;;;;;7330859;19;9618;-28
2023/06/17 01:56:30;;;;;;;;;;;27.50;49.70;;;;;;7330153;19;10110;-25
2023/06/17 01:58:59;;;;;;;;;;;27.50;49.70;;;;;;7331328;19;9188;-28
2023/06/17 02:01:28;;;;;;;;;;;27.50;49.70;;;;;;7327837;19;10285;-27
2023/06/17 02:03:57;;;;;;;;;;;27.50;49.70;;;;;;7330864;19;9515;-28
2023/06/17 02:06:27;;;;;;;;;;;27.50;49.70;;;;;;7329010;19;9225;-28
2023/06/17 02:08:56;;;;;;;;;;;27.50;49.80;;;;;;7330288;19;9383;-29
2023/06/17 02:11:25;;;;;;;;;;;27.50;49.80;;;;;;7328600;19;9494;-27
2023/06/17 02:13:58;;;;;;;;;;;27.50;49.80;;;;;;7329469;19;9508;-29
2023/06/17 02:16:27;;;;;;;;;;;27.50;49.80;;;;;;7330324;19;9196;-29
2023/06/17 02:18:56;;;;;;;;;;;27.50;49.90;;;;;;7330272;19;9321;-27
2023/06/17 02:21:26;;;;;;;;;;;27.50;49.90;;;;;;7327315;19;9271;-28
2023/06/17 02:23:55;;;;;;;;;;;27.50;49.90;;;;;;7330421;19;10595;-29
2023/06/17 02:26:24;;;;;;;;;;;27.40;49.80;;;;;;7328301;19;9282;-26
2023/06/17 02:28:53;;;;;;;;;;;27.50;49.80;;;;;;7328870;19;9277;-25
2023/06/17 02:31:26;;;;;;;;;;;27.50;49.90;;;;;;7328768;19;9430;-28
2023/06/17 02:33:55;;;;;;;;;;;27.50;50.00;;;;;;7327428;19;9208;-30
2023/06/17 02:36:24;;;;;;;;;;;27.50;49.80;;;;;;7329163;19;9252;-25
2023/06/17 02:38:56;;;;;;;;;;;27.50;49.80;;;;;;7327595;19;9000;-26
2023/06/17 02:41:25;;;;;;;;;;;27.50;49.90;;;;;;7327288;19;9215;-26
2023/06/17 02:43:54;;;;;;;;;;;27.50;49.80;;;;;;7327108;19;9503;-29
2023/06/17 02:46:28;;;;;;;;;;;27.50;49.80;;;;;;7328437;19;9138;-33
2023/06/17 02:48:57;;;;;;;;;;;27.50;49.80;;;;;;7327481;19;9216;-25
2023/06/17 02:51:27;;;;;;;;;;;27.50;49.90;;;;;;7328251;19;9497;-24
2023/06/17 02:53:57;;;;;;;;;;;27.50;49.90;;;;;;7327473;19;9170;-27
2023/06/17 02:56:26;;;;;;;;;;;27.40;49.80;;;;;;7325865;19;9341;-27
2023/06/17 02:58:55;;;;;;;;;;;27.40;49.80;;;;;;7327880;19;9166;-27
2023/06/17 03:01:28;;;;;;;;;;;27.40;50.00;;;;;;7326530;19;9408;-25
2023/06/17 03:04:01;;;;;;;;;;;27.40;50.00;;;;;;7328017;19;9235;-25
2023/06/17 03:06:33;;;;;;;;;;;27.40;50.00;;;;;;7328187;19;8944;-24
2023/06/17 03:09:03;;;;;;;;;;;27.40;50.00;;;;;;7328184;19;9471;-26
2023/06/17 03:11:32;;;;;;;;;;;27.30;50.00;;;;;;7325866;19;9426;-29
2023/06/17 03:14:02;;;;;;;;;;;27.40;50.10;;;;;;7326672;19;9417;-27
2023/06/17 03:16:38;;;;;;;;;;;27.40;50.00;;;;;;7327190;19;9486;-27
2023/06/17 03:19:07;;;;;;;;;;;27.30;50.00;;;;;;7327703;19;10066;-29
2023/06/17 03:21:40;;;;;;;;;;;27.40;50.00;;;;;;7327057;19;9218;-25
2023/06/17 03:24:10;;;;;;;;;;;27.30;50.00;;;;;;7327461;19;9248;-27
2023/06/17 03:26:39;;;;;;;;;;;27.30;50.00;;;;;;7325164;19;9454;-25
2023/06/17 03:29:08;;;;;;;;;;;27.30;50.10;;;;;;7326818;19;9292;-26
2023/06/17 03:31:40;;;;;;;;;;;27.30;50.10;;;;;;7326100;19;9457;-25
2023/06/17 03:34:09;;;;;;;;;;;27.30;50.20;;;;;;7327276;19;9213;-24
2023/06/17 03:36:39;;;;;;;;;;;27.30;50.10;;;;;;7327276;19;9174;-24
2023/06/17 03:39:09;;;;;;;;;;;27.30;50.10;;;;;;7327252;19;9169;-28
2023/06/17 03:41:38;;;;;;;;;;;27.30;50.10;;;;;;7325240;19;9196;-27
2023/06/17 03:44:07;;;;;;;;;;;27.30;50.20;;;;;;7327254;19;9174;-25
2023/06/17 03:46:39;;;;;;;;;;;27.30;50.20;;;;;;7325616;19;9228;-28
2023/06/17 03:49:08;;;;;;;;;;;27.30;50.20;;;;;;7327365;19;9201;-26
2023/06/17 03:51:37;;;;;;;;;;;27.30;50.20;;;;;;7325815;19;9500;-28
2023/06/17 03:54:06;;;;;;;;;;;27.30;50.20;;;;;;7327265;19;9198;-24
2023/06/17 03:56:36;;;;;;;;;;;27.30;50.10;;;;;;7325260;19;9173;-28
2023/06/17 03:59:05;;;;;;;;;;;27.30;50.20;;;;;;7327194;19;9217;-28
2023/06/17 04:01:35;;;;;;;;;;;27.30;50.20;;;;;;7324671;19;8993;-27
2023/06/17 04:04:07;;;;;;;;;;;27.30;50.20;;;;;;7327306;19;9223;-24
2023/06/17 04:06:37;;;;;;;;;;;27.20;50.10;;;;;;7325781;19;9254;-25
2023/06/17 04:09:08;;;;;;;;;;;27.30;50.20;;;;;;7325154;19;10134;-25
2023/06/17 04:11:37;;;;;;;;;;;27.20;50.20;;;;;;7326276;19;9241;-28
2023/06/17 04:14:07;;;;;;;;;;;27.20;50.20;;;;;;7325977;19;9201;-28
2023/06/17 04:16:36;;;;;;;;;;;27.20;50.20;;;;;;7326023;19;9211;-33
2023/06/17 04:19:09;;;;;;;;;;;27.20;50.20;;;;;;7326721;19;9245;-30
2023/06/17 04:21:38;;;;;;;;;;;27.20;50.30;;;;;;7325174;19;9230;-28
2023/06/17 04:24:07;;;;;;;;;;;27.20;50.30;;;;;;7324939;19;9229;-24
2023/06/17 04:26:37;;;;;;;;;;;27.20;50.40;;;;;;7325563;19;9331;-29
2023/06/17 04:29:08;;;;;;;;;;;27.10;50.30;;;;;;7326103;19;10410;-25
2023/06/17 04:31:40;;;;;;;;;;;27.10;50.30;;;;;;7325982;19;9627;-27
2023/06/17 04:34:21;;;;;;;;;;;27.10;50.50;;;;;;7324695;19;9265;-24
2023/06/17 04:36:57;;;;;;;;;;;27.10;50.40;;;;;;7326791;19;9247;-25
2023/06/17 04:39:26;;;;;;;;;;;27.10;50.50;;;;;;7329613;19;9224;-24
2023/06/17 04:41:56;;;;;;;;;;;27.10;50.50;;;;;;7332140;19;9222;-27
2023/06/17 04:44:26;;;;;;;;;;;27.10;50.50;;;;;;7333113;19;9222;-28
2023/06/17 04:46:57;;;;;;;;;;;27.10;50.50;;;;;;7331490;19;9326;-24
2023/06/17 04:49:29;;;;;;;;;;;27.10;50.50;;;;;;7332678;19;9458;-26
2023/06/17 04:51:58;;;;;;;;;;;27.10;50.40;;;;;;7333229;19;9600;-24
2023/06/17 04:54:28;;;;;;;;;;;27.10;50.40;;;;;;7332217;19;9514;-24
2023/06/17 04:56:57;;;;;;;;;;;27.20;50.50;;;;;;7329906;19;8944;-26
2023/06/17 04:59:26;;;;;;;;;;;27.20;50.50;;;;;;7330493;19;10967;-25
2023/06/17 05:01:55;;;;;;;;;;;27.10;50.30;;;;;;7331198;19;9222;-35
2023/06/17 05:04:25;;;;;;;;;;;27.20;50.40;;;;;;7333411;19;9174;-28
2023/06/17 05:06:56;;;;;;;;;;;27.20;50.40;;;;;;7332279;19;9193;-28
2023/06/17 05:09:25;;;;;;;;;;;27.20;50.40;;;;;;7332194;19;9592;-28
2023/06/17 05:11:54;;;;;;;;;;;27.10;50.30;;;;;;7331119;19;9204;-29
2023/06/17 05:14:24;;;;;;;;;;;27.20;50.50;;;;;;7331810;19;9202;-28
2023/06/17 05:16:53;;;;;;;;;;;27.20;50.40;;;;;;7330911;19;10355;-24
2023/06/17 05:19:22;;;;;;;;;;;27.20;50.40;;;;;;7331305;19;9166;-27
2023/06/17 05:21:52;;;;;;;;;;;27.20;50.50;;;;;;7329977;19;9419;-24
2023/06/17 05:24:23;;;;;;;;;;;27.20;50.40;;;;;;7331459;19;9185;-28
2023/06/17 05:26:52;;;;;;;;;;;27.20;50.40;;;;;;7330941;19;9336;-27
2023/06/17 05:29:22;;;;;;;;;;;27.20;50.30;;;;;;7331991;19;9264;-28
2023/06/17 05:31:51;;;;;;;;;;;27.20;50.50;;;;;;7328603;19;9221;-26
2023/06/17 05:34:20;;;;;;;;;;;27.20;50.30;;;;;;7332283;19;9260;-33
2023/06/17 05:36:49;;;;;;;;;;;27.20;50.20;;;;;;7330623;19;9165;-29
2023/06/17 05:39:18;;;;;;;;;;;27.20;50.30;;;;;;7331728;19;9174;-30
2023/06/17 05:41:50;;;;;;;;;;;27.20;50.30;;;;;;7330295;19;9189;-34
2023/06/17 05:44:19;;;;;;;;;;;27.20;50.30;;;;;;7330411;19;9553;-30
2023/06/17 05:46:48;;;;;;;;;;;27.30;50.30;;;;;;7330776;19;9441;-29
2023/06/17 05:49:18;;;;;;;;;;;27.20;50.30;;;;;;7328784;19;10058;-31
2023/06/17 05:51:47;;;;;;;;;;;27.30;50.20;;;;;;7331186;19;9213;-26
2023/06/17 05:54:16;;;;;;;;;;;27.30;50.30;;;;;;7331389;19;9230;-29
2023/06/17 05:56:45;;;;;;;;;;;27.30;50.30;;;;;;7329452;19;9106;-26
2023/06/17 05:59:16;;;;;;;;;;;27.30;50.20;;;;;;7330546;19;9513;-31
2023/06/17 06:01:45;;;;;;;;;;;27.30;50.20;;;;;;7328988;19;9244;-28
2023/06/17 06:04:15;;;;;;;;;;;27.30;50.30;;;;;;7330634;19;9193;-28
2023/06/17 06:06:44;;;;;;;;;;;27.30;50.20;;;;;;7329837;19;9185;-27
2023/06/17 06:09:13;;;;;;;;;;;27.30;50.20;;;;;;7330971;19;10687;-28
2023/06/17 06:11:42;;;;;;;;;;;27.30;50.20;;;;;;7329944;19;10629;-28
2023/06/17 06:14:11;;;;;;;;;;;27.30;50.30;;;;;;7329108;19;9491;-30
2023/06/17 06:16:44;;;;;;;;;;;27.30;50.20;;;;;;7330233;19;9461;-28
2023/06/17 06:19:13;;;;;;;;;;;27.30;50.20;;;;;;7329262;19;9218;-28
2023/06/17 06:21:42;;;;;;;;;;;27.30;50.10;;;;;;7329951;19;9329;-24
2023/06/17 06:24:11;;;;;;;;;;;27.30;50.20;;;;;;7329722;19;9213;-29
2023/06/17 06:26:40;;;;;;;;;;;27.30;50.10;;;;;;7328554;19;9205;-27
2023/06/17 06:29:09;;;;;;;;;;;27.40;50.20;;;;;;7328912;19;9344;-26
2023/06/17 06:31:42;;;;;;;;;;;27.30;50.20;;;;;;7330223;19;9209;-34
2023/06/17 06:34:14;;;;;;;;;;;27.30;50.10;;;;;;7328902;19;10639;-28
2023/06/17 06:36:43;;;;;;;;;;;27.30;50.20;;;;;;7328475;19;9138;-29
2023/06/17 06:39:12;;;;;;;;;;;27.30;50.10;;;;;;7328166;19;9000;-26
2023/06/17 06:41:41;;;;;;;;;;;27.30;50.10;;;;;;7326827;19;9457;-30
2023/06/17 06:44:11;;;;;;;;;;;27.30;50.20;;;;;;7327570;19;10102;-24
2023/06/17 06:46:40;;;;;;;;;;;27.20;50.10;;;;;;7327603;19;9173;-28
2023/06/17 06:49:09;;;;;;;;;;;27.30;50.20;;;;;;7328976;19;9496;-24
2023/06/17 06:51:42;;;;;;;;;;;27.30;50.20;;;;;;7328325;19;9189;-29
2023/06/17 06:54:11;;;;;;;;;;;27.30;50.20;;;;;;7328995;19;9249;-24
2023/06/17 06:56:40;;;;;;;;;;;27.30;50.20;;;;;;7327996;19;10181;-26
2023/06/17 06:59:09;;;;;;;;;;;27.30;50.10;;;;;;7329030;19;9217;-25
2023/06/17 07:01:38;;;;;;;;;;;27.40;50.10;;;;;;7324979;19;8944;-29
2023/06/17 07:04:08;;;;;;;;;;;27.40;50.10;;;;;;7328315;19;9265;-30
2023/06/17 07:06:37;;;;;;;;;;;27.40;50.10;;;;;;7328530;19;9214;-31
2023/06/17 07:09:09;;;;;;;;;;;27.40;50.00;;;;;;7328781;19;9284;-30
2023/06/17 07:11:38;;;;;;;;;;;27.40;50.00;;;;;;7326628;19;9328;-24
2023/06/17 07:14:07;;;;;;;;;;;27.40;50.00;;;;;;7325619;19;9174;-28
2023/06/17 07:16:36;;;;;;;;;;;27.40;50.00;;;;;;7328549;19;10210;-25
2023/06/17 07:19:06;;;;;;;;;;;27.40;50.10;;;;;;7326384;19;9217;-29
2023/06/17 07:21:35;;;;;;;;;;;27.40;50.10;;;;;;7327785;19;9290;-33
2023/06/17 07:24:04;;;;;;;;;;;27.40;50.00;;;;;;7326961;19;9255;-31
2023/06/17 07:26:36;;;;;;;;;;;27.40;50.00;;;;;;7324345;19;9640;-31
2023/06/17 07:29:05;;;;;;;;;;;27.40;50.00;;;;;;7326038;19;9216;-26
2023/06/17 07:31:34;;;;;;;;;;;27.40;50.00;;;;;;7327517;19;9449;-30
2023/06/17 07:34:03;;;;;;;;;;;27.40;50.00;;;;;;7326161;19;9252;-24
2023/06/17 07:36:32;;;;;;;;;;;27.40;49.90;;;;;;7328854;19;9169;-30
2023/06/17 07:39:03;;;;;;;;;;;27.50;50.00;;;;;;7326217;19;9330;-25
2023/06/17 07:41:32;;;;;;;;;;;27.50;50.00;;;;;;7328509;19;9209;-28
2023/06/17 07:44:03;;;;;;;;;;;27.50;49.90;;;;;;7324666;19;9241;-25
2023/06/17 07:46:32;;;;;;;;;;;27.50;49.90;;;;;;7326296;19;9281;-25
2023/06/17 07:49:01;;;;;;;;;;;27.50;50.00;;;;;;7327251;19;9255;-29
2023/06/17 07:51:31;;;;;;;;;;;27.50;49.90;;;;;;7324901;19;9185;-25
2023/06/17 07:54:00;;;;;;;;;;;27.50;50.00;;;;;;7327138;19;9205;-30
2023/06/17 07:56:29;;;;;;;;;;;27.50;49.90;;;;;;7325132;19;9282;-27
2023/06/17 07:58:59;;;;;;;;;;;27.50;50.00;;;;;;7327346;19;9245;-28
2023/06/17 08:01:32;;;;;;;;;;;27.50;50.00;;;;;;7326479;19;9437;-30
2023/06/17 08:04:01;;;;;;;;;;;27.50;49.90;;;;;;7324733;19;9404;-25
2023/06/17 08:06:30;;;;;;;;;;;27.50;49.90;;;;;;7325217;19;9217;-24
2023/06/17 08:09:00;;;;;;;;;;;27.50;49.80;;;;;;7326445;19;9219;-24
2023/06/17 08:11:29;;;;;;;;;;;27.50;49.80;;;;;;7325188;19;9511;-28
2023/06/17 08:13:58;;;;;;;;;;;27.50;49.90;;;;;;7333582;19;9070;-27
2023/06/17 08:16:30;;;;;;;;;;;27.60;49.90;;;;;;7333241;19;9473;-25
2023/06/17 08:18:59;;;;;;;;;;;27.60;49.90;;;;;;7334406;19;9260;-24
2023/06/17 08:21:29;;;;;;;;;;;27.60;49.90;;;;;;7334540;19;9460;-24
2023/06/17 08:23:58;;;;;;;;;;;27.60;49.90;;;;;;7331537;19;9265;-29
2023/06/17 08:26:27;;;;;;;;;;;27.60;49.90;;;;;;7332924;19;9281;-29
2023/06/17 08:28:56;;;;;;;;;;;27.60;49.90;;;;;;7334420;19;9217;-26
2023/06/17 08:31:26;;;;;;;;;;;27.60;49.90;;;;;;7333807;19;9514;-28
2023/06/17 08:33:57;;;;;;;;;;;27.60;49.90;;;;;;7333434;19;10011;-27
2023/06/17 08:36:26;;;;;;;;;;;27.60;50.00;;;;;;7333024;19;9173;-28
2023/06/17 08:38:56;;;;;;;;;;;27.60;49.90;;;;;;7332689;19;10520;-29
2023/06/17 08:41:27;;;;;;;;;;;27.60;49.90;;;;;;7332512;19;9436;-28
2023/06/17 08:44:00;;;;;;;;;;;27.60;49.90;;;;;;7329697;19;9304;-32
2023/06/17 08:46:29;;;;;;;;;;;27.60;50.00;;;;;;7333574;19;9266;-28
2023/06/17 08:49:02;;;;;;;;;;;27.60;49.90;;;;;;7333855;19;9249;-25
2023/06/17 08:51:32;;;;;;;;;;;27.60;49.90;;;;;;7333042;19;9286;-30
2023/06/17 08:54:04;;;;;;;;;;;27.70;50.00;;;;;;7331287;19;9449;-29
2023/06/17 08:56:53;;;;;;;;;;;27.60;49.90;;;;;;7330289;19;9186;-26
2023/06/17 08:59:23;;;;;;;;;;;27.70;50.00;;;;;;7331731;19;9146;-30
2023/06/17 09:01:55;;;;;;;;;;;27.70;50.00;;;;;;7332369;19;9458;-29
2023/06/17 09:04:27;;;;;;;;;;;27.70;50.00;;;;;;7329944;19;9225;-34
2023/06/17 09:06:56;;;;;;;;;;;27.70;50.00;;;;;;7333040;19;9210;-25
2023/06/17 09:09:26;;;;;;;;;;;27.70;50.00;;;;;;7332109;19;9588;-32
2023/06/17 09:11:56;;;;;;;;;;;27.70;50.00;;;;;;7332822;19;9354;-29
2023/06/17 09:14:25;;;;;;;;;;;27.70;50.00;;;;;;7331867;19;9469;-24
2023/06/17 09:16:54;;;;;;;;;;;27.70;50.00;;;;;;7330100;19;9197;-28
2023/06/17 09:19:26;;;;;;;;;;;27.70;50.00;;;;;;7331723;19;9173;-29
2023/06/17 09:21:58;;;;;;;;;;;27.70;50.00;;;;;;7330838;19;9220;-24
2023/06/17 09:24:32;;;;;;;;;;;27.70;50.00;;;;;;7326271;19;9242;-28
2023/06/17 09:27:01;;;;;;;;;;;27.70;50.10;;;;;;7329527;19;9514;-26
2023/06/17 09:29:32;;;;;;;;;;;27.80;50.00;;;;;;7330137;19;9228;-30
2023/06/17 09:32:04;;;;;;;;;;;27.80;50.10;;;;;;7331242;19;9243;-25
2023/06/17 09:34:36;;;;;;;;;;;27.80;50.00;;;;;;7327768;19;10845;-26
2023/06/17 09:37:06;;;;;;;;;;;27.80;50.10;;;;;;7330999;19;9252;-30
2023/06/17 09:39:36;;;;;;;;;;;27.80;50.10;;;;;;7330612;19;9201;-31
2023/06/17 09:42:12;;;;;;;;;;;27.80;50.10;;;;;;7329933;19;9166;-31
2023/06/17 09:44:41;;;;;;;;;;;27.80;50.20;;;;;;7327389;19;10831;-25
2023/06/17 09:47:12;;;;;;;;;;;27.80;50.20;;;;;;7330918;19;9181;-28
2023/06/17 09:49:45;;;;;;;;;;;27.80;50.20;;;;;;7330450;19;9576;-28
2023/06/17 09:52:16;;;;;;;;;;;27.80;50.10;;;;;;7331360;19;9234;-25
2023/06/17 09:54:47;;;;;;;;;;;27.80;50.20;;;;;;7328803;19;9451;-25
2023/06/17 09:57:18;;;;;;;;;;;27.80;50.20;;;;;;7330155;19;10098;-27
2023/06/17 09:59:54;;;;;;;;;;;27.90;50.20;;;;;;7329565;19;8944;-25
2023/06/17 10:02:24;;;;;;;;;;;27.90;50.10;;;;;;7330751;19;9193;-29
2023/06/17 10:04:56;;;;;;;;;;;27.90;50.10;;;;;;7327308;19;9493;-27
2023/06/17 10:07:27;;;;;;;;;;;27.90;50.10;;;;;;7330248;19;10099;-27
2023/06/17 10:09:56;;;;;;;;;;;27.90;50.10;;;;;;7329557;19;9231;-26
2023/06/17 10:12:28;;;;;;;;;;;27.90;50.10;;;;;;7330733;19;9225;-25
2023/06/17 10:15:00;;;;;;;;;;;28.00;50.20;;;;;;7329668;19;9319;-24
2023/06/17 10:17:31;;;;;;;;;;;28.00;50.20;;;;;;7330372;19;9201;-25
2023/06/17 10:20:08;;;;;;;;;;;28.00;50.20;;;;;;7329209;19;9498;-31
2023/06/17 10:22:40;;;;;;;;;;;28.00;50.20;;;;;;7328568;19;9178;-28
2023/06/17 10:25:11;;;;;;;;;;;28.00;50.30;;;;;;7328893;19;9308;-26
2023/06/17 10:27:40;;;;;;;;;;;28.00;50.20;;;;;;7327797;19;9361;-30
2023/06/17 10:30:27;;;;;;;;;;;28.00;50.30;;;;;;7329879;19;8944;-26
2023/06/17 10:33:01;;;;;;;;;;;28.00;50.20;;;;;;7328849;19;9450;-32
2023/06/17 10:35:43;;;;;;;;;;;28.10;50.40;;;;;;7327988;19;9248;-35
2023/06/17 10:38:29;;;;;;;;;;;28.10;50.40;;;;;;7328526;19;9227;-26
2023/06/17 10:40:59;;;;;;;;;;;28.10;50.40;;;;;;7329140;19;9525;-27
2023/06/17 10:43:29;;;;;;;;;;;28.10;50.40;;;;;;7328171;19;9169;-31
2023/06/17 10:45:59;;;;;;;;;;;28.10;50.30;;;;;;7328678;19;9306;-26
2023/06/17 10:48:32;;;;;;;;;;;28.20;50.30;;;;;;7329546;19;8944;-30
2023/06/17 10:51:10;;;;;;;;;;;28.10;50.20;;;;;;7327029;19;11573;-31
2023/06/17 10:53:41;;;;;;;;;;;28.20;50.30;;;;;;7329867;19;9219;-27
2023/06/17 10:56:11;;;;;;;;;;;28.20;50.30;;;;;;7326614;19;9231;-29
2023/06/17 10:58:46;;;;;;;;;;;28.20;50.30;;;;;;7324658;19;9494;-33
2023/06/17 11:01:16;;;;;;;;;;;28.20;50.30;;;;;;7328549;19;9150;-25
2023/06/17 11:03:45;;;;;;;;;;;28.20;50.30;;;;;;7328142;19;9215;-29
2023/06/17 11:06:17;;;;;;;;;;;28.30;50.30;;;;;;7328379;19;9122;-28
2023/06/17 11:08:46;;;;;;;;;;;28.30;50.30;;;;;;7327978;19;9181;-28
2023/06/17 11:11:18;;;;;;;;;;;28.30;50.30;;;;;;7328900;19;8984;-28
2023/06/17 11:13:50;;;;;;;;;;;28.30;50.30;;;;;;7326482;19;9195;-28
2023/06/17 11:16:20;;;;;;;;;;;28.30;50.20;;;;;;7328509;19;9217;-25
2023/06/17 11:18:50;;;;;;;;;;;28.40;50.30;;;;;;7327618;19;9176;-25
2023/06/17 11:21:22;;;;;;;;;;;28.40;50.40;;;;;;7327955;19;9227;-24
2023/06/17 11:23:52;;;;;;;;;;;28.40;50.30;;;;;;7326924;19;9228;-26
2023/06/17 11:26:24;;;;;;;;;;;28.40;50.30;;;;;;7327517;19;9254;-28
2023/06/17 11:28:53;;;;;;;;;;;28.40;50.20;;;;;;7327451;19;9256;-29
2023/06/17 11:31:25;;;;;;;;;;;28.50;50.20;;;;;;7327030;19;8944;-24
2023/06/17 11:34:00;;;;;;;;;;;28.50;50.30;;;;;;7327459;19;9258;-31
2023/06/17 11:36:34;;;;;;;;;;;28.50;50.20;;;;;;7328676;19;9158;-24
2023/06/17 11:39:03;;;;;;;;;;;28.50;50.20;;;;;;7327766;19;9170;-24
2023/06/17 11:41:33;;;;;;;;;;;28.50;50.20;;;;;;7326782;19;9246;-29
2023/06/17 11:44:03;;;;;;;;;;;28.50;50.30;;;;;;7326436;19;9023;-27
2023/06/17 11:46:32;;;;;;;;;;;28.50;50.30;;;;;;7325836;19;8996;-30
2023/06/17 11:49:01;;;;;;;;;;;28.50;50.30;;;;;;7326816;19;9219;-29
2023/06/17 11:51:33;;;;;;;;;;;28.60;50.30;;;;;;7327733;19;9262;-28
2023/06/17 11:54:08;;;;;;;;;;;28.50;50.30;;;;;;7326829;19;9461;-30
2023/06/17 11:56:37;;;;;;;;;;;28.50;50.20;;;;;;7325184;19;9451;-29
2023/06/17 11:59:09;;;;;;;;;;;28.50;50.20;;;;;;7326158;19;9483;-26
2023/06/17 12:01:38;;;;;;;;;;;28.60;50.40;;;;;;7325471;19;9220;-24
2023/06/17 12:04:08;;;;;;;;;;;28.60;50.30;;;;;;7325908;19;9198;-26
2023/06/17 12:06:39;;;;;;;;;;;28.60;50.30;;;;;;7325395;19;9229;-32
2023/06/17 12:09:10;;;;;;;;;;;28.60;50.30;;;;;;7326999;19;9474;-24
2023/06/17 12:11:43;;;;;;;;;;;28.60;50.40;;;;;;7326412;19;9213;-33
2023/06/17 12:14:14;;;;;;;;;;;28.60;50.40;;;;;;7325002;19;9384;-28
2023/06/17 12:16:44;;;;;;;;;;;28.60;50.40;;;;;;7326429;19;9213;-27
2023/06/17 12:19:23;;;;;;;;;;;28.60;50.40;;;;;;7325790;19;9244;-25
2023/06/17 12:21:55;;;;;;;;;;;28.70;50.40;;;;;;7327033;19;9201;-29
2023/06/17 12:24:25;;;;;;;;;;;28.70;50.40;;;;;;7324107;19;9005;-31
2023/06/17 12:26:54;;;;;;;;;;;28.70;50.40;;;;;;7325401;19;9193;-26
2023/06/17 12:29:23;;;;;;;;;;;28.70;50.40;;;;;;7325724;19;9561;-31
2023/06/17 12:31:52;;;;;;;;;;;28.70;50.50;;;;;;7326545;19;10131;-25
2023/06/17 12:34:21;;;;;;;;;;;28.70;50.50;;;;;;7325403;19;9471;-26
2023/06/17 12:36:51;;;;;;;;;;;28.70;50.40;;;;;;7326340;19;9275;-25
2023/06/17 12:39:22;;;;;;;;;;;28.70;50.50;;;;;;7322875;19;11216;-26
2023/06/17 12:41:51;;;;;;;;;;;28.70;50.40;;;;;;7325423;19;9462;-30
2023/06/17 12:44:20;;;;;;;;;;;28.70;50.40;;;;;;7324950;19;9539;-31
2023/06/17 12:46:50;;;;;;;;;;;28.80;50.50;;;;;;7324570;19;9232;-29
2023/06/17 12:49:19;;;;;;;;;;;28.70;50.40;;;;;;7324947;19;9509;-28
2023/06/17 12:51:49;;;;;;;;;;;28.80;50.50;;;;;;7325579;19;9461;-26
2023/06/17 12:54:18;;;;;;;;;;;28.80;50.50;;;;;;7325316;19;9206;-25
2023/06/17 12:56:49;;;;;;;;;;;28.80;50.50;;;;;;7325148;19;9379;-25
2023/06/17 12:59:19;;;;;;;;;;;28.80;50.50;;;;;;7327669;19;9211;-26
2023/06/17 13:01:48;;;;;;;;;;;28.80;50.50;;;;;;7330655;19;9461;-27
2023/06/17 13:04:17;;;;;;;;;;;28.80;50.50;;;;;;7328959;19;9169;-25
2023/06/17 13:06:46;;;;;;;;;;;28.90;50.60;;;;;;7331120;19;9309;-27
2023/06/17 13:09:16;;;;;;;;;;;28.90;50.60;;;;;;7331226;19;10232;-31
2023/06/17 13:11:45;;;;;;;;;;;28.80;50.50;;;;;;7330974;19;9225;-26
2023/06/17 13:14:18;;;;;;;;;;;28.80;50.60;;;;;;7332520;19;9201;-28
2023/06/17 13:16:47;;;;;;;;;;;28.90;50.60;;;;;;7332755;19;9266;-30
2023/06/17 13:19:17;;;;;;;;;;;28.90;50.60;;;;;;7332023;19;9657;-29
2023/06/17 13:21:46;;;;;;;;;;;28.90;50.60;;;;;;7331233;19;9181;-26
2023/06/17 13:24:15;;;;;;;;;;;28.90;50.60;;;;;;7331916;19;9333;-25
2023/06/17 13:26:45;;;;;;;;;;;28.90;50.60;;;;;;7331496;19;9345;-29
2023/06/17 13:29:17;;;;;;;;;;;29.00;50.60;;;;;;7332027;19;9217;-24
2023/06/17 13:31:46;;;;;;;;;;;29.00;50.60;;;;;;7331074;19;9189;-30
2023/06/17 13:34:15;;;;;;;;;;;29.00;50.70;;;;;;7329260;19;10830;-29
2023/06/17 13:36:46;;;;;;;;;;;29.00;50.70;;;;;;7332340;19;9222;-26
2023/06/17 13:39:15;;;;;;;;;;;29.00;50.70;;;;;;7330094;19;8944;-28
2023/06/17 13:41:44;;;;;;;;;;;29.00;50.70;;;;;;7330336;19;9083;-28
2023/06/17 13:44:14;;;;;;;;;;;29.10;50.70;;;;;;7330409;19;9232;-27
2023/06/17 13:46:47;;;;;;;;;;;29.10;50.70;;;;;;7330851;19;8944;-29
2023/06/17 13:49:16;;;;;;;;;;;29.10;50.70;;;;;;7330053;19;9197;-33
2023/06/17 13:51:45;;;;;;;;;;;29.10;50.70;;;;;;7330614;19;9181;-30
2023/06/17 13:54:17;;;;;;;;;;;29.10;50.70;;;;;;7330308;19;9185;-31
2023/06/17 13:56:47;;;;;;;;;;;29.20;50.80;;;;;;7330198;19;9221;-28
2023/06/17 13:59:17;;;;;;;;;;;29.20;50.80;;;;;;7331530;19;9235;-30
2023/06/17 14:01:49;;;;;;;;;;;29.20;50.80;;;;;;7330156;19;9233;-28
2023/06/17 14:04:18;;;;;;;;;;;29.20;50.80;;;;;;7329123;19;9449;-28
2023/06/17 14:06:48;;;;;;;;;;;29.20;50.80;;;;;;7329850;19;9211;-25
2023/06/17 14:09:17;;;;;;;;;;;29.20;50.70;;;;;;7330655;19;9444;-25
2023/06/17 14:11:46;;;;;;;;;;;29.20;50.70;;;;;;7329903;19;9498;-32
2023/06/17 14:14:15;;;;;;;;;;;29.30;50.80;;;;;;7328962;19;9534;-29
2023/06/17 14:16:44;;;;;;;;;;;29.30;50.80;;;;;;7330143;19;9193;-26
2023/06/17 14:19:16;;;;;;;;;;;29.30;50.90;;;;;;7330411;19;9230;-30
2023/06/17 14:21:56;;;;;;;;;;;29.30;50.80;;;;;;7329863;19;9542;-30
2023/06/17 14:24:25;;;;;;;;;;;29.30;50.90;;;;;;7329630;19;10086;-26
2023/06/17 14:27:38;;;;;;;;;;;29.40;50.90;;;;;;7329234;19;8952;-31
2023/06/17 14:30:10;;;;;;;;;;;29.40;50.90;;;;;;7329354;19;9115;-26
2023/06/17 14:32:39;;;;;;;;;;;29.40;50.90;;;;;;7330325;19;9277;-25
2023/06/17 14:35:13;;;;;;;;;;;29.40;50.90;;;;;;7328729;19;9052;-27
2023/06/17 14:37:44;;;;;;;;;;;29.40;50.80;;;;;;7328708;19;9517;-29
2023/06/17 14:40:14;;;;;;;;;;;29.50;51.00;;;;;;7326382;19;9169;-27
2023/06/17 14:42:44;;;;;;;;;;;29.50;50.90;;;;;;7328714;19;9509;-28
2023/06/17 14:45:16;;;;;;;;;;;29.50;50.90;;;;;;7328087;19;9441;-29
2023/06/17 14:47:46;;;;;;;;;;;29.50;50.90;;;;;;7329154;19;9186;-28